Terminal Aerodrome Forecast
Issued by NWS

Home | Current Version | Previous Version | Text Only | Print | Product List | Glossary On
Versions: 1 2 3 4 5 6 7 8 9 10 11 12 13 14 15 16 17 18 19
000
FTUS44 KTSA 181125
TAFFYV
TAF
KFYV 181125Z 1812/1912 34003KT 3SM BR BKN050
      TEMPO 1812/1816 1SM BR VV002
     FM181600 16005KT P6SM BKN025
     FM190000 VRB03KT 4SM BR OVC007=

USA.gov is the U.S. government's official web portal to all federal, state and local government web resources and services.